Time;durP1;ratioP1;P1;durP2;ratioP2;P2;SDS_P1;SDS_P2;PMS_P1;PMS_P2;Temp;Humidity;BMP_temperature;BMP_pressure;BME280_temperature;BME280_humidity;BME280_pressure;Samples;Min_cycle;Max_cycle;Signal;HPM_P1;HPM_P2
2022/06/12 00:01:57;;;;;;;1.97;0.70;;;16.40;99.90;;;;;;5094333;28;20183;-68
2022/06/12 00:04:25;;;;;;;3.63;0.80;;;16.30;99.90;;;;;;5094182;28;20233;-67
2022/06/12 00:06:53;;;;;;;2.60;0.97;;;16.70;99.90;;;;;;5093391;28;20204;-67
2022/06/12 00:09:20;;;;;;;1.40;0.60;;;16.70;99.90;;;;;;5094148;28;20661;-68
2022/06/12 00:11:48;;;;;;;3.47;0.97;;;16.60;99.90;;;;;;5093904;28;20210;-68
2022/06/12 00:14:16;;;;;;;2.37;0.77;;;16.60;99.90;;;;;;5093127;28;20176;-66
2022/06/12 00:16:45;;;;;;;5.27;0.80;;;17.00;99.90;;;;;;5111192;28;20206;-65
2022/06/12 00:19:14;;;;;;;3.50;0.90;;;17.10;99.90;;;;;;5093940;28;20176;-67
2022/06/12 00:21:42;;;;;;;1.90;0.73;;;17.00;99.90;;;;;;5093953;28;20172;-68
2022/06/12 00:24:13;;;;;;;2.87;0.60;;;17.40;99.90;;;;;;5093401;28;20210;-68
2022/06/12 00:26:49;;;;;;;3.30;0.80;;;17.00;99.90;;;;;;5093164;28;20241;-69
2022/06/12 00:29:26;;;;;;;3.00;0.80;;;17.30;99.90;;;;;;5093443;28;20191;-67
2022/06/12 00:31:57;;;;;;;1.90;0.90;;;17.40;99.90;;;;;;5093197;28;20207;-68
2022/06/12 00:34:30;;;;;;;2.07;0.70;;;17.60;99.90;;;;;;5093721;28;20183;-67
2022/06/12 00:36:59;;;;;;;3.87;1.00;;;17.80;99.90;;;;;;5093346;28;20230;-68
2022/06/12 00:39:26;;;;;;;5.13;0.80;;;17.60;99.90;;;;;;5092831;28;20174;-67
2022/06/12 00:41:56;;;;;;;2.80;0.80;;;17.90;99.90;;;;;;5093116;28;20265;-67
2022/06/12 00:44:29;;;;;;;1.97;0.70;;;17.90;99.90;;;;;;5092774;28;20183;-65
2022/06/12 00:46:59;;;;;;;2.70;0.80;;;17.90;99.90;;;;;;5093362;28;20213;-64
2022/06/12 00:49:33;;;;;;;3.17;0.80;;;18.10;99.90;;;;;;5093190;28;20183;-64
2022/06/12 00:52:12;;;;;;;4.47;0.73;;;17.70;99.90;;;;;;5092229;28;20222;-64
2022/06/12 00:54:43;;;;;;;7.23;0.90;;;17.90;99.90;;;;;;5071465;28;20222;-65
2022/06/12 00:57:11;;;;;;;1.37;0.60;;;17.70;99.90;;;;;;5092610;28;20185;-65
2022/06/12 00:59:55;;;;;;;0.70;0.70;;;18.10;99.90;;;;;;5092907;28;20258;-65
2022/06/12 01:02:28;;;;;;;0.90;0.70;;;18.10;99.90;;;;;;5092906;28;20262;-64
2022/06/12 01:07:45;;;;;;;4.87;1.20;;;18.70;99.90;;;;;;5093105;28;20218;-67
2022/06/12 01:10:15;;;;;;;1.27;0.70;;;18.40;99.90;;;;;;5093250;28;20236;-66
2022/06/12 01:12:50;;;;;;;1.83;0.60;;;18.50;99.90;;;;;;5092906;28;20179;-65
2022/06/12 01:15:27;;;;;;;3.40;1.00;;;19.00;99.90;;;;;;5092907;28;20190;-65
2022/06/12 01:17:55;;;;;;;2.47;0.60;;;19.00;99.90;;;;;;5092973;28;20529;-65
2022/06/12 01:20:27;;;;;;;0.83;0.60;;;19.10;99.90;;;;;;5092757;28;20177;-64
2022/06/12 01:23:06;;;;;;;1.20;0.70;;;19.50;99.90;;;;;;5092932;28;20175;-65
2022/06/12 01:25:48;;;;;;;1.70;0.57;;;19.50;99.90;;;;;;5092067;28;20267;-65
2022/06/12 01:28:40;;;;;;;2.17;0.60;;;19.40;99.90;;;;;;5092760;28;20190;-65
2022/06/12 01:31:45;;;;;;;2.87;1.00;;;19.50;99.70;;;;;;5074609;28;20699;-66
2022/06/12 01:34:28;;;;;;;3.93;0.73;;;19.30;98.70;;;;;;5087699;28;20187;-67
2022/06/12 01:37:24;;;;;;;3.00;1.00;;;19.20;98.80;;;;;;5093016;28;20243;-65
2022/06/12 01:40:19;;;;;;;1.80;0.90;;;19.30;99.90;;;;;;5092905;28;20760;-64
2022/06/12 01:43:10;;;;;;;1.67;0.70;;;19.60;99.20;;;;;;5092195;28;20717;-64
2022/06/12 01:45:57;;;;;;;7.13;0.90;;;20.10;96.40;;;;;;5092518;28;20195;-64
2022/06/12 01:48:51;;;;;;;4.27;1.00;;;20.00;97.60;;;;;;5090594;28;20537;-64
2022/06/12 01:51:22;;;;;;;1.40;0.80;;;20.50;97.80;;;;;;5092630;28;20770;-67
2022/06/12 01:53:55;;;;;;;2.37;0.60;;;20.50;95.60;;;;;;5092613;28;20173;-65
2022/06/12 01:56:55;;;;;;;2.63;0.60;;;20.20;94.60;;;;;;5092774;28;20490;-65
2022/06/12 01:59:47;;;;;;;2.17;0.70;;;19.90;94.30;;;;;;5091781;28;20176;-66
2022/06/12 02:02:41;;;;;;;2.37;0.70;;;20.00;96.00;;;;;;5072310;28;20237;-68
2022/06/12 02:05:44;;;;;;;4.27;0.60;;;20.30;94.40;;;;;;5076138;28;20179;-65
2022/06/12 02:08:38;;;;;;;3.87;0.60;;;20.60;93.70;;;;;;5076529;28;20186;-66
2022/06/12 02:14:11;;;;;;;3.87;0.60;;;20.80;93.20;;;;;;5076222;28;20191;-66
2022/06/12 02:16:43;;;;;;;2.37;0.70;;;21.30;92.70;;;;;;5076100;28;20218;-65
2022/06/12 02:19:45;;;;;;;0.83;0.57;;;21.40;90.40;;;;;;5074653;28;20599;-65
2022/06/12 02:22:20;;;;;;;1.30;0.70;;;21.80;89.00;;;;;;5070928;28;20198;-65
2022/06/12 02:25:02;;;;;;;1.27;0.53;;;21.20;87.10;;;;;;5095398;28;20190;-65
2022/06/12 02:27:38;;;;;;;1.17;0.87;;;21.30;86.90;;;;;;5075934;28;20188;-66
2022/06/12 02:30:23;;;;;;;3.03;0.83;;;21.30;86.10;;;;;;5088792;28;20205;-67
2022/06/12 02:32:56;;;;;;;2.63;0.80;;;20.80;78.50;;;;;;5075434;28;20188;-65
2022/06/12 02:35:33;;;;;;;1.83;0.53;;;20.00;84.50;;;;;;5057709;28;20672;-65
2022/06/12 02:38:11;;;;;;;1.60;0.70;;;20.20;86.80;;;;;;5075653;28;20254;-66
2022/06/12 02:40:48;;;;;;;1.83;0.77;;;19.90;83.50;;;;;;5057475;28;20270;-66
2022/06/12 02:43:20;;;;;;;2.10;0.47;;;20.10;83.50;;;;;;5075368;28;20349;-66
2022/06/12 02:46:08;;;;;;;3.10;0.80;;;19.80;86.70;;;;;;5075364;28;20668;-66
2022/06/12 02:48:35;;;;;;;0.80;0.60;;;19.80;81.10;;;;;;5075446;28;20176;-65
2022/06/12 02:51:18;;;;;;;0.60;0.50;;;19.70;83.00;;;;;;5075342;28;20215;-66
2022/06/12 02:54:00;;;;;;;3.53;0.50;;;19.30;85.20;;;;;;5075297;28;20172;-67
2022/06/12 02:56:45;;;;;;;1.53;0.70;;;19.60;83.70;;;;;;5075848;28;20599;-67
2022/06/12 02:59:35;;;;;;;2.80;0.70;;;19.60;85.60;;;;;;5075283;28;20698;-67
2022/06/12 03:02:10;;;;;;;3.03;0.70;;;19.20;84.20;;;;;;5026836;28;20194;-67
2022/06/12 03:04:46;;;;;;;1.90;0.67;;;19.40;84.90;;;;;;5075186;28;20540;-69
2022/06/12 03:07:14;;;;;;;1.60;0.60;;;19.20;85.10;;;;;;5075160;28;20231;-67
2022/06/12 03:09:42;;;;;;;0.83;0.50;;;20.00;84.20;;;;;;5075061;28;20173;-68
2022/06/12 03:12:10;;;;;;;3.63;0.60;;;20.10;81.80;;;;;;5075097;28;20229;-67
2022/06/12 03:14:37;;;;;;;1.37;1.00;;;20.10;77.60;;;;;;5075111;28;20172;-67
2022/06/12 03:17:05;;;;;;;3.77;0.87;;;19.80;77.00;;;;;;5056807;28;20243;-68
2022/06/12 03:19:49;;;;;;;2.30;0.60;;;19.90;77.70;;;;;;5075176;28;20228;-67
2022/06/12 03:22:22;;;;;;;3.23;0.63;;;20.00;81.30;;;;;;5075081;28;20177;-68
2022/06/12 03:25:02;;;;;;;2.27;0.53;;;20.50;77.80;;;;;;5074985;28;20698;-67
2022/06/12 03:27:35;;;;;;;5.63;0.60;;;19.90;76.40;;;;;;5074901;28;20195;-68
2022/06/12 03:30:15;;;;;;;1.40;0.70;;;19.70;79.80;;;;;;5074864;28;20175;-68
2022/06/12 03:33:07;;;;;;;0.83;0.60;;;19.90;81.60;;;;;;5074758;28;20182;-67
2022/06/12 03:35:57;;;;;;;1.03;0.60;;;19.70;79.70;;;;;;5074599;28;20178;-67
2022/06/12 03:38:39;;;;;;;1.53;0.63;;;19.50;84.50;;;;;;5074631;28;20249;-67
2022/06/12 03:41:12;;;;;;;2.53;0.80;;;20.00;85.60;;;;;;5074651;28;20176;-67
2022/06/12 03:44:16;;;;;;;3.23;0.90;;;19.50;85.30;;;;;;5074391;28;20200;-66
2022/06/12 03:46:48;;;;;;;1.77;0.70;;;19.40;84.70;;;;;;5074327;28;20179;-66
2022/06/12 03:49:29;;;;;;;2.20;0.60;;;19.60;85.60;;;;;;5074486;28;20324;-67
2022/06/12 03:52:14;;;;;;;0.70;0.53;;;19.30;89.90;;;;;;5074215;28;20253;-68
2022/06/12 03:55:17;;;;;;;1.27;0.63;;;19.30;90.30;;;;;;5074301;28;20181;-67
2022/06/12 03:58:02;;;;;;;1.93;0.77;;;19.00;89.60;;;;;;5019265;28;20218;-67
2022/06/12 04:00:36;;;;;;;2.60;0.80;;;19.30;89.40;;;;;;5074098;28;20177;-66
2022/06/12 04:03:34;;;;;;;2.53;0.63;;;19.20;90.70;;;;;;5073816;28;20172;-67
2022/06/12 04:06:18;;;;;;;3.20;0.77;;;19.20;91.90;;;;;;5073174;28;20195;-67
2022/06/12 04:08:50;;;;;;;1.00;0.73;;;19.20;92.30;;;;;;5073911;28;20174;-67
2022/06/12 04:11:20;;;;;;;1.77;0.83;;;19.30;93.00;;;;;;5073671;28;20206;-67
2022/06/12 04:13:49;;;;;;;1.17;0.80;;;19.80;92.20;;;;;;5073698;28;20633;-67
2022/06/12 04:16:36;;;;;;;2.33;0.70;;;20.10;92.00;;;;;;5073774;28;20180;-67
2022/06/12 04:19:07;;;;;;;1.77;0.60;;;19.70;91.20;;;;;;5073748;28;20169;-66
2022/06/12 04:22:09;;;;;;;0.63;0.50;;;19.20;92.50;;;;;;5055722;28;20660;-66
2022/06/12 04:24:40;;;;;;;1.77;0.53;;;19.00;94.50;;;;;;5073437;28;20259;-66
2022/06/12 04:27:21;;;;;;;1.03;0.50;;;19.30;93.30;;;;;;5072938;28;20248;-66
2022/06/12 04:29:59;;;;;;;2.43;0.90;;;19.20;94.40;;;;;;5073750;28;20168;-66
2022/06/12 04:32:28;;;;;;;2.67;0.70;;;18.90;93.70;;;;;;5055451;28;20676;-68
2022/06/12 04:34:55;;;;;;;0.90;0.50;;;18.90;96.80;;;;;;5073269;28;20255;-66
2022/06/12 04:37:29;;;;;;;1.23;0.60;;;19.30;94.20;;;;;;5073410;28;20172;-66
2022/06/12 04:39:59;;;;;;;2.47;0.83;;;19.60;94.00;;;;;;5073368;28;20169;-66
2022/06/12 04:42:30;;;;;;;1.63;1.27;;;19.40;92.20;;;;;;5073182;28;20551;-67
2022/06/12 04:45:03;;;;;;;1.77;0.60;;;19.40;93.40;;;;;;5073088;28;20168;-67
2022/06/12 04:47:32;;;;;;;3.60;2.07;;;18.70;94.50;;;;;;5072907;28;20184;-66
2022/06/12 04:49:59;;;;;;;2.10;1.10;;;18.60;97.40;;;;;;5072837;28;20545;-66
2022/06/12 04:52:28;;;;;;;0.80;0.70;;;18.60;97.50;;;;;;5074226;28;20176;-65
2022/06/12 04:54:55;;;;;;;2.23;0.73;;;18.70;97.80;;;;;;5091311;28;20179;-65
2022/06/12 04:57:24;;;;;;;1.13;0.90;;;18.50;97.00;;;;;;5088017;28;20175;-64
2022/06/12 04:59:52;;;;;;;2.30;0.60;;;18.90;98.30;;;;;;5091954;28;20214;-64
2022/06/12 05:02:19;;;;;;;1.70;0.90;;;18.60;97.60;;;;;;5088328;28;20198;-65
2022/06/12 05:04:47;;;;;;;3.17;0.93;;;18.60;99.00;;;;;;5080500;28;20229;-65
2022/06/12 05:07:15;;;;;;;1.63;0.80;;;18.40;99.40;;;;;;5073967;28;20179;-65
2022/06/12 05:09:43;;;;;;;2.27;1.00;;;18.50;99.40;;;;;;5053996;28;20208;-65
2022/06/12 05:12:12;;;;;;;2.03;0.70;;;18.10;99.90;;;;;;5090025;28;20708;-65
2022/06/12 05:14:41;;;;;;;1.97;0.57;;;18.10;99.90;;;;;;5090898;28;20709;-65
2022/06/12 05:17:14;;;;;;;3.07;0.83;;;18.20;99.90;;;;;;5091304;28;20183;-66
2022/06/12 05:19:44;;;;;;;1.97;0.87;;;18.00;99.90;;;;;;5091155;28;20221;-66
2022/06/12 05:22:12;;;;;;;4.93;1.17;;;17.90;99.90;;;;;;5091056;28;20217;-66
2022/06/12 05:24:41;;;;;;;0.93;0.77;;;17.80;99.90;;;;;;5090376;28;20191;-65
2022/06/12 05:27:14;;;;;;;1.63;0.93;;;17.50;99.90;;;;;;5089580;28;20216;-66
2022/06/12 05:29:41;;;;;;;4.17;1.00;;;17.10;99.90;;;;;;5090942;28;20190;-65
2022/06/12 05:32:12;;;;;;;2.13;0.90;;;17.10;99.90;;;;;;5072462;28;20211;-65
2022/06/12 05:34:39;;;;;;;1.37;0.87;;;16.80;99.90;;;;;;5091442;28;20186;-65
2022/06/12 05:37:07;;;;;;;4.67;0.77;;;16.50;99.90;;;;;;5075004;28;20175;-66
2022/06/12 05:39:34;;;;;;;3.17;1.30;;;16.40;99.90;;;;;;5094932;28;20182;-65
2022/06/12 05:42:02;;;;;;;2.10;0.70;;;16.30;99.90;;;;;;5095181;28;20183;-65
2022/06/12 05:44:29;;;;;;;3.23;1.73;;;16.30;99.90;;;;;;5095197;28;20532;-64
2022/06/12 05:47:00;;;;;;;3.20;2.00;;;16.10;99.90;;;;;;5094884;28;20183;-66
2022/06/12 05:49:29;;;;;;;1.67;0.93;;;16.10;99.90;;;;;;5095412;28;20512;-66
2022/06/12 05:51:56;;;;;;;2.20;0.70;;;16.00;99.90;;;;;;5094784;28;20226;-66
2022/06/12 05:54:24;;;;;;;3.10;0.90;;;15.80;99.90;;;;;;5095171;28;20184;-66
2022/06/12 05:56:51;;;;;;;1.90;1.00;;;15.70;99.90;;;;;;5095213;28;20185;-66
2022/06/12 05:59:19;;;;;;;1.37;0.77;;;15.60;99.90;;;;;;5094648;28;20177;-65
2022/06/12 06:01:46;;;;;;;1.13;0.70;;;15.60;99.90;;;;;;5094829;28;20188;-65
2022/06/12 06:04:14;;;;;;;1.50;0.80;;;15.50;99.90;;;;;;5094517;28;20226;-65
2022/06/12 06:06:52;;;;;;;3.97;0.93;;;15.50;99.90;;;;;;5094378;28;20672;-65
2022/06/12 06:09:20;;;;;;;4.43;1.30;;;15.40;99.90;;;;;;5094845;28;20191;-65
2022/06/12 06:11:47;;;;;;;2.07;1.10;;;15.40;99.90;;;;;;5077590;28;20272;-65
2022/06/12 06:14:15;;;;;;;3.20;0.90;;;15.30;99.90;;;;;;5094921;28;20200;-67
2022/06/12 06:16:43;;;;;;;2.83;1.00;;;15.30;99.90;;;;;;5094889;28;20175;-66
2022/06/12 06:19:12;;;;;;;3.53;1.57;;;15.20;99.90;;;;;;5094723;28;20686;-66
2022/06/12 06:21:40;;;;;;;2.77;1.07;;;15.20;99.90;;;;;;5094180;28;20683;-65
2022/06/12 06:24:09;;;;;;;7.50;3.47;;;15.10;99.90;;;;;;5076080;28;20520;-65
2022/06/12 06:26:36;;;;;;;7.93;3.73;;;15.00;99.90;;;;;;5094347;28;20318;-66
2022/06/12 06:29:04;;;;;;;4.50;1.93;;;15.00;99.90;;;;;;5094347;28;20195;-66
2022/06/12 06:31:32;;;;;;;1.93;1.27;;;14.90;99.90;;;;;;5094241;28;20228;-65
2022/06/12 06:33:59;;;;;;;6.57;1.03;;;14.80;99.90;;;;;;5093674;28;20266;-65
2022/06/12 06:36:27;;;;;;;2.03;0.80;;;14.80;99.90;;;;;;5094178;28;20776;-65
2022/06/12 06:38:55;;;;;;;1.03;0.77;;;14.80;99.90;;;;;;5094064;28;20191;-65
2022/06/12 06:41:23;;;;;;;1.93;1.10;;;14.70;99.90;;;;;;5094426;28;20284;-65
2022/06/12 06:46:37;;;;;;;4.30;0.90;;;14.50;99.90;;;;;;5091867;28;20236;-65
2022/06/12 06:49:05;;;;;;;1.37;0.60;;;14.40;99.90;;;;;;5071005;28;20193;-65
2022/06/12 06:51:33;;;;;;;5.77;1.47;;;14.40;99.90;;;;;;5094063;28;20301;-65
2022/06/12 06:54:01;;;;;;;1.97;1.20;;;14.30;99.90;;;;;;5093560;28;20261;-66
2022/06/12 06:56:29;;;;;;;0.90;0.70;;;14.20;99.90;;;;;;5094257;28;20217;-66
2022/06/12 06:58:56;;;;;;;0.70;0.70;;;14.20;99.90;;;;;;5093671;28;20181;-66
2022/06/12 07:01:24;;;;;;;0.50;0.50;;;14.10;99.90;;;;;;5093126;28;20196;-65
2022/06/12 07:03:53;;;;;;;1.23;0.70;;;14.10;99.90;;;;;;5093796;28;20268;-66
2022/06/12 07:06:21;;;;;;;1.10;0.80;;;14.00;99.90;;;;;;5092922;28;20181;-65
2022/06/12 07:08:48;;;;;;;1.50;1.00;;;14.00;99.90;;;;;;5093498;28;20206;-66
2022/06/12 07:11:16;;;;;;;1.43;0.93;;;14.00;99.90;;;;;;5093755;28;20287;-65
2022/06/12 07:13:43;;;;;;;1.67;0.93;;;13.80;99.90;;;;;;5093507;28;20230;-66
2022/06/12 07:16:11;;;;;;;1.77;0.90;;;13.70;99.90;;;;;;5093750;28;20181;-65
2022/06/12 07:18:39;;;;;;;4.83;2.27;;;13.70;99.90;;;;;;5089437;28;20185;-66
2022/06/12 07:21:07;;;;;;;2.80;1.63;;;13.60;99.90;;;;;;5086322;28;20190;-66
2022/06/12 07:23:35;;;;;;;2.97;1.80;;;13.40;99.90;;;;;;5081964;28;20179;-65
2022/06/12 07:26:07;;;;;;;3.87;2.20;;;13.30;99.90;;;;;;5093278;28;20320;-66
2022/06/12 07:28:38;;;;;;;2.70;1.57;;;13.30;99.90;;;;;;5093439;28;20192;-67
2022/06/12 07:31:07;;;;;;;1.57;1.00;;;13.20;99.90;;;;;;5093140;28;20304;-66
2022/06/12 07:33:37;;;;;;;1.30;0.90;;;13.10;99.90;;;;;;5092834;28;20671;-65
2022/06/12 07:36:10;;;;;;;1.80;1.13;;;13.20;99.90;;;;;;5074495;28;20337;-66
2022/06/12 07:38:39;;;;;;;3.33;1.60;;;13.20;99.90;;;;;;5068815;28;20181;-66
2022/06/12 07:41:09;;;;;;;3.37;1.60;;;13.10;99.90;;;;;;5085207;28;20187;-65
2022/06/12 07:43:38;;;;;;;4.83;2.20;;;13.10;99.90;;;;;;5084045;28;20180;-64
2022/06/12 07:46:08;;;;;;;4.30;1.87;;;13.00;99.90;;;;;;5082753;28;20171;-64
2022/06/12 07:48:35;;;;;;;3.23;1.57;;;12.90;99.90;;;;;;5078593;28;20186;-65
2022/06/12 07:51:07;;;;;;;2.60;1.63;;;12.80;99.90;;;;;;5072983;28;20235;-66
2022/06/12 07:53:35;;;;;;;1.30;1.00;;;12.60;99.90;;;;;;5073032;28;20178;-67
2022/06/12 07:56:04;;;;;;;1.27;0.93;;;12.50;99.90;;;;;;5090560;28;20189;-65
2022/06/12 07:58:32;;;;;;;2.87;1.10;;;12.30;99.90;;;;;;5092373;28;20564;-64
2022/06/12 08:01:03;;;;;;;1.20;0.90;;;12.20;99.90;;;;;;5092046;28;20187;-65
2022/06/12 08:03:31;;;;;;;1.90;1.20;;;12.10;99.90;;;;;;5074896;28;20989;-67
2022/06/12 08:05:59;;;;;;;3.20;1.60;;;12.20;99.90;;;;;;5092912;28;20182;-64
2022/06/12 08:08:28;;;;;;;2.47;1.70;;;12.10;99.90;;;;;;5092922;28;20187;-66
2022/06/12 08:10:58;;;;;;;5.90;1.77;;;12.10;99.90;;;;;;5092702;28;20295;-66
2022/06/12 08:13:26;;;;;;;4.43;2.07;;;12.10;99.90;;;;;;5092793;28;20273;-66
2022/06/12 08:15:54;;;;;;;2.63;1.83;;;12.10;99.90;;;;;;5039037;28;20546;-65
2022/06/12 08:18:23;;;;;;;3.43;2.20;;;12.00;99.90;;;;;;5077223;28;20181;-65
2022/06/12 08:20:56;;;;;;;2.40;2.00;;;12.00;99.90;;;;;;5068642;28;20726;-67
2022/06/12 08:23:43;;;;;;;3.63;2.20;;;11.90;99.90;;;;;;5091766;28;20184;-64
2022/06/12 08:26:13;;;;;;;4.80;2.30;;;11.80;99.90;;;;;;5078765;28;20675;-66
2022/06/12 08:28:51;;;;;;;3.47;1.60;;;11.80;99.90;;;;;;5093527;28;20189;-65
2022/06/12 08:31:31;;;;;;;2.63;1.60;;;11.70;99.90;;;;;;5093483;28;20210;-64
2022/06/12 08:34:05;;;;;;;2.27;1.50;;;11.80;99.90;;;;;;5088736;28;20292;-66
2022/06/12 08:36:36;;;;;;;3.47;2.27;;;11.70;99.90;;;;;;5093466;28;20196;-65
2022/06/12 08:39:06;;;;;;;3.13;2.50;;;11.60;99.90;;;;;;5089782;28;20672;-67
2022/06/12 08:41:57;;;;;;;3.53;2.60;;;11.60;99.90;;;;;;5086142;28;20176;-64
2022/06/12 08:44:31;;;;;;;4.43;2.40;;;11.50;99.90;;;;;;5071010;28;20258;-66
2022/06/12 08:47:01;;;;;;;4.17;1.77;;;11.50;99.90;;;;;;5073316;28;20206;-65
2022/06/12 08:49:57;;;;;;;3.43;1.90;;;11.40;99.90;;;;;;5073153;28;20198;-65
2022/06/12 08:52:38;;;;;;;3.20;2.17;;;11.40;99.90;;;;;;5078165;28;20271;-65
2022/06/12 08:55:13;;;;;;;1.73;1.43;;;11.40;99.90;;;;;;5072949;28;20259;-66
2022/06/12 08:58:01;;;;;;;3.87;1.70;;;11.30;99.90;;;;;;5073200;28;20187;-66
2022/06/12 09:00:33;;;;;;;4.20;2.83;;;11.10;99.90;;;;;;5076191;28;20194;-66
2022/06/12 09:03:00;;;;;;;2.80;1.60;;;10.90;99.90;;;;;;5076849;28;20169;-65
2022/06/12 09:05:51;;;;;;;3.07;1.40;;;10.70;99.90;;;;;;5083602;28;20177;-67
2022/06/12 09:09:02;;;;;;;1.43;1.23;;;10.70;99.90;;;;;;5107802;28;20169;-65
2022/06/12 09:12:02;;;;;;;3.53;1.60;;;11.00;99.90;;;;;;5001128;28;20231;-64
2022/06/12 09:15:01;;;;;;;1.73;1.30;;;11.10;99.90;;;;;;5052297;28;20188;-66
2022/06/12 09:17:49;;;;;;;2.00;1.20;;;11.30;99.90;;;;;;5087935;28;20172;-65
2022/06/12 09:20:38;;;;;;;4.43;1.77;;;11.40;99.90;;;;;;5093485;28;20178;-66
2022/06/12 09:23:13;;;;;;;1.70;1.27;;;11.50;99.90;;;;;;5093100;28;20176;-66
2022/06/12 09:26:12;;;;;;;1.73;1.50;;;11.50;99.90;;;;;;5092690;28;20212;-66
2022/06/12 09:29:07;;;;;;;2.43;1.63;;;11.40;99.90;;;;;;5093025;28;20185;-66
2022/06/12 09:31:47;;;;;;;2.93;1.67;;;11.40;99.90;;;;;;5092789;28;20209;-65
2022/06/12 09:34:40;;;;;;;2.80;1.73;;;11.40;99.90;;;;;;5092884;28;20173;-65
2022/06/12 09:40:42;;;;;;;3.53;2.30;;;11.20;99.90;;;;;;5066631;28;20207;-66
2022/06/12 09:43:40;;;;;;;4.07;2.30;;;11.10;99.90;;;;;;5075374;28;20194;-64
2022/06/12 09:46:46;;;;;;;2.47;1.80;;;11.10;99.90;;;;;;5092557;28;20261;-66
2022/06/12 09:49:22;;;;;;;2.27;1.80;;;11.10;99.90;;;;;;5092689;28;20177;-65
2022/06/12 09:52:18;;;;;;;3.00;1.50;;;11.00;99.90;;;;;;5093002;28;20301;-65
2022/06/12 09:55:08;;;;;;;2.77;1.43;;;10.80;99.90;;;;;;5092820;28;20177;-65
2022/06/12 09:57:40;;;;;;;1.57;1.33;;;10.60;99.90;;;;;;5092634;28;20245;-65
2022/06/12 10:00:17;;;;;;;3.77;2.60;;;10.40;99.90;;;;;;5092741;28;20564;-66
2022/06/12 10:03:11;;;;;;;6.40;4.93;;;10.20;99.90;;;;;;5092672;28;20217;-66
2022/06/12 10:06:01;;;;;;;6.50;5.90;;;10.00;99.90;;;;;;5092438;28;20655;-66
2022/06/12 10:08:50;;;;;;;6.67;6.03;;;9.80;99.90;;;;;;5092993;28;20188;-66
2022/06/12 10:11:21;;;;;;;2.80;2.40;;;9.60;99.90;;;;;;5093229;28;20207;-63
2022/06/12 10:14:05;;;;;;;2.37;2.10;;;9.50;99.90;;;;;;5092459;28;20175;-64
2022/06/12 10:16:51;;;;;;;23.07;20.70;;;9.40;99.90;;;;;;5094015;28;20174;-68
2022/06/12 10:19:34;;;;;;;12.03;10.80;;;9.30;99.90;;;;;;5091088;28;20654;-66
2022/06/12 10:22:12;;;;;;;12.77;9.93;;;9.20;99.90;;;;;;5092421;28;20338;-66
2022/06/12 10:24:40;;;;;;;9.87;8.33;;;9.20;99.90;;;;;;5076709;28;20592;-65
2022/06/12 10:27:11;;;;;;;7.17;6.47;;;9.00;99.90;;;;;;5096083;28;20225;-66
2022/06/12 10:29:53;;;;;;;6.20;5.60;;;9.00;99.90;;;;;;5096187;28;20181;-66
2022/06/12 10:32:27;;;;;;;4.10;3.53;;;8.90;99.90;;;;;;5095958;28;20210;-65
2022/06/12 10:35:16;;;;;;;4.30;3.90;;;8.80;99.90;;;;;;5095466;28;20176;-65
2022/06/12 10:37:44;;;;;;;6.07;3.67;;;8.80;99.90;;;;;;5096049;28;20333;-66
2022/06/12 10:40:24;;;;;;;689.13;239.77;;;8.70;99.90;;;;;;5077972;28;20189;-67
2022/06/12 10:43:00;;;;;;;583.50;198.67;;;8.60;99.90;;;;;;5095631;28;20185;-67
2022/06/12 10:45:34;;;;;;;838.00;297.53;;;8.60;99.90;;;;;;5095545;28;20180;-67
2022/06/12 10:48:23;;;;;;;510.57;169.37;;;8.60;99.90;;;;;;5096043;28;20179;-67
2022/06/12 10:51:05;;;;;;;398.47;118.30;;;8.50;99.90;;;;;;5094877;28;20234;-65
2022/06/12 10:53:35;;;;;;;209.13;68.33;;;8.40;99.90;;;;;;5078593;28;20591;-66
2022/06/12 10:56:12;;;;;;;169.77;66.10;;;8.30;99.90;;;;;;5094203;28;20729;-66
2022/06/12 10:58:49;;;;;;;77.13;30.97;;;8.20;99.90;;;;;;5095523;28;20194;-66
2022/06/12 11:01:28;;;;;;;53.23;20.50;;;8.10;99.90;;;;;;5095850;28;20173;-64
2022/06/12 11:04:34;;;;;;;92.93;32.87;;;8.10;99.90;;;;;;5095585;28;20169;-65
2022/06/12 11:07:08;;;;;;;218.00;75.90;;;8.00;99.90;;;;;;4993024;28;20191;-65
2022/06/12 11:09:40;;;;;;;51.07;25.17;;;8.00;99.90;;;;;;4993970;28;20184;-65
2022/06/12 11:12:22;;;;;;;31.63;18.47;;;8.00;99.90;;;;;;4991921;28;20225;-64
2022/06/12 11:15:15;;;;;;;39.73;17.07;;;7.90;99.90;;;;;;5024835;28;20559;-64
2022/06/12 11:17:59;;;;;;;8.60;6.10;;;7.90;99.90;;;;;;5093756;28;20609;-64
2022/06/12 11:20:31;;;;;;;6.53;4.87;;;7.80;99.90;;;;;;5095490;28;20649;-65
2022/06/12 11:23:11;;;;;;;6.43;3.90;;;7.70;99.90;;;;;;5095051;28;20172;-64
2022/06/12 11:26:03;;;;;;;5.73;3.20;;;7.70;99.90;;;;;;5094654;28;20285;-64
2022/06/12 11:28:55;;;;;;;6.07;3.60;;;7.60;99.90;;;;;;5091264;28;20184;-65
2022/06/12 11:32:10;;;;;;;6.37;3.93;;;7.60;99.90;;;;;;5092243;28;20270;-65
2022/06/12 11:35:05;;;;;;;5.33;3.57;;;7.50;99.90;;;;;;5051270;28;20230;-65
2022/06/12 11:37:38;;;;;;;4.93;3.67;;;7.40;99.90;;;;;;5094400;28;20186;-65
2022/06/12 11:40:35;;;;;;;5.90;3.77;;;7.40;99.90;;;;;;5094614;28;20255;-65
2022/06/12 11:43:20;;;;;;;7.60;4.60;;;7.40;99.90;;;;;;5094818;28;20265;-65
2022/06/12 11:45:54;;;;;;;7.23;4.00;;;7.40;99.90;;;;;;5094266;28;20207;-64
2022/06/12 11:48:25;;;;;;;8.80;4.27;;;7.30;99.90;;;;;;5094742;28;20176;-65
2022/06/12 11:51:04;;;;;;;6.93;4.17;;;7.30;99.90;;;;;;5094771;28;20207;-65
2022/06/12 11:53:36;;;;;;;7.90;4.13;;;7.20;99.90;;;;;;5094408;28;20167;-65
2022/06/12 11:56:45;;;;;;;8.10;4.27;;;7.20;99.90;;;;;;5088964;28;20266;-65
2022/06/12 11:59:49;;;;;;;6.63;4.40;;;7.10;99.90;;;;;;5072813;28;20187;-64
2022/06/12 12:02:38;;;;;;;5.87;4.70;;;7.00;99.90;;;;;;5093910;28;20317;-65
2022/06/12 12:05:25;;;;;;;5.30;3.63;;;7.10;99.90;;;;;;5091151;28;20202;-64
2022/06/12 12:07:58;;;;;;;5.77;4.23;;;7.00;99.90;;;;;;5094072;28;20179;-64
2022/06/12 12:10:46;;;;;;;10.93;6.20;;;7.00;99.90;;;;;;5094241;28;20685;-64
2022/06/12 12:13:20;;;;;;;12.67;4.87;;;7.00;99.90;;;;;;5094050;28;20180;-65
2022/06/12 12:15:57;;;;;;;11.40;4.93;;;6.90;99.90;;;;;;5093760;28;20722;-65
2022/06/12 12:18:37;;;;;;;9.00;4.47;;;6.80;99.90;;;;;;5094128;28;20183;-64
2022/06/12 12:21:28;;;;;;;7.53;4.17;;;6.90;99.90;;;;;;5076360;28;20569;-64
2022/06/12 12:23:56;;;;;;;5.60;3.57;;;6.90;99.90;;;;;;5090463;28;20184;-65
2022/06/12 12:26:38;;;;;;;7.03;3.47;;;6.90;99.90;;;;;;5093531;28;20368;-65
2022/06/12 12:29:23;;;;;;;5.17;3.57;;;6.90;99.90;;;;;;5093981;28;20187;-66
2022/06/12 12:31:52;;;;;;;4.40;2.93;;;6.90;99.90;;;;;;5093702;28;20690;-64
2022/06/12 12:34:24;;;;;;;5.63;3.30;;;6.80;99.90;;;;;;5093136;28;20183;-63
2022/06/12 12:42:39;;;;;;;7.70;3.13;;;6.60;99.90;;;;;;5073505;28;20555;-64
2022/06/12 12:45:16;;;;;;;3.90;2.90;;;6.60;99.90;;;;;;5073206;28;20186;-64
2022/06/12 12:47:44;;;;;;;7.80;3.47;;;6.50;99.90;;;;;;5072824;28;20188;-64
2022/06/12 12:50:16;;;;;;;7.30;4.10;;;6.50;99.90;;;;;;5076930;28;20193;-65
2022/06/12 12:52:55;;;;;;;9.20;4.73;;;6.40;99.90;;;;;;5093338;28;20187;-65
2022/06/12 12:55:28;;;;;;;10.40;5.10;;;6.40;99.90;;;;;;5093361;28;20299;-65
2022/06/12 12:57:59;;;;;;;7.03;4.60;;;6.40;99.90;;;;;;5093289;28;20189;-66
2022/06/12 13:00:35;;;;;;;8.73;4.93;;;6.40;99.90;;;;;;5093933;28;20249;-64
2022/06/12 13:03:11;;;;;;;6.73;4.70;;;6.50;99.90;;;;;;5092891;28;20175;-65
2022/06/12 13:06:08;;;;;;;7.73;4.03;;;6.50;99.90;;;;;;5093234;28;20178;-65
2022/06/12 13:09:13;;;;;;;7.93;4.50;;;6.50;99.90;;;;;;5040038;28;20191;-65
2022/06/12 13:12:08;;;;;;;11.27;5.40;;;6.50;99.90;;;;;;5073019;28;20768;-65
2022/06/12 13:14:54;;;;;;;10.40;5.60;;;6.50;99.90;;;;;;5077016;28;20167;-65
2022/06/12 13:17:27;;;;;;;9.17;5.10;;;6.50;99.90;;;;;;5092986;28;20175;-65
2022/06/12 13:20:25;;;;;;;14.53;6.10;;;6.50;99.90;;;;;;5093549;28;20171;-66
2022/06/12 13:23:17;;;;;;;10.37;5.60;;;6.40;99.90;;;;;;5092414;28;20244;-65
2022/06/12 13:25:53;;;;;;;9.47;5.00;;;6.30;99.90;;;;;;5092713;28;20227;-64
2022/06/12 13:28:25;;;;;;;11.43;4.83;;;6.30;99.90;;;;;;5092976;28;20171;-64
2022/06/12 13:30:54;;;;;;;10.67;4.60;;;6.20;99.90;;;;;;5092368;28;20210;-64
2022/06/12 13:33:27;;;;;;;8.77;4.50;;;6.20;99.90;;;;;;5092996;28;20198;-65
2022/06/12 13:35:56;;;;;;;6.50;4.30;;;6.10;99.90;;;;;;5092772;28;20180;-64
2022/06/12 13:38:46;;;;;;;7.80;4.67;;;6.10;99.90;;;;;;5092714;28;20175;-65
2022/06/12 13:41:28;;;;;;;6.30;4.27;;;6.10;99.90;;;;;;5092275;28;20261;-65
2022/06/12 13:43:56;;;;;;;6.23;4.00;;;6.00;99.90;;;;;;5092618;28;20208;-64
2022/06/12 13:46:36;;;;;;;6.13;4.43;;;6.00;99.90;;;;;;5092885;28;20179;-65
2022/06/12 13:49:32;;;;;;;9.57;4.53;;;5.90;99.90;;;;;;5093062;28;20171;-66
2022/06/12 13:52:41;;;;;;;9.07;4.47;;;5.90;99.90;;;;;;5092469;28;20292;-64
2022/06/12 13:55:54;;;;;;;7.63;4.10;;;5.90;99.90;;;;;;5065503;28;20192;-66
2022/06/12 13:58:37;;;;;;;6.37;3.80;;;6.00;99.90;;;;;;5036105;28;20660;-65